createdAt,value
2023-06-09T00:00:33.751Z,85.99
2023-06-09T00:01:12.820Z,85.72
2023-06-09T00:01:53.117Z,87.59
2023-06-09T00:02:41.084Z,86.64
2023-06-09T00:03:33.543Z,85.37
2023-06-09T00:04:32.208Z,85.46
2023-06-09T00:05:41.789Z,86.13
2023-06-09T00:07:21.682Z,86.56
2023-06-09T00:08:20.550Z,86.99
2023-06-09T00:09:08.126Z,87.89
2023-06-09T00:10:25.813Z,88.88
2023-06-09T00:11:13.448Z,89.77
2023-06-09T00:11:54.518Z,90.12
2023-06-09T00:12:32.670Z,89.68
2023-06-09T00:13:07.074Z,91.15
2023-06-09T00:13:44.498Z,91.14
2023-06-09T00:14:25.383Z,89.20
2023-06-09T00:15:00.762Z,90.12
2023-06-09T00:15:37.430Z,89.84
2023-06-09T00:16:10.896Z,88.40
2023-06-09T00:16:49.967Z,89.02
2023-06-09T00:17:27.311Z,89.84
2023-06-09T00:18:04.167Z,89.46
2023-06-09T00:18:41.630Z,88.63
2023-06-09T00:19:23.626Z,88.63
2023-06-09T00:20:35.365Z,89.08
2023-06-09T00:21:11.789Z,88.68
2023-06-09T00:21:53.458Z,88.59
2023-06-09T00:23:02.025Z,87.30
2023-06-09T00:24:10.479Z,87.04
2023-06-09T00:24:44.434Z,86.85
2023-06-09T00:25:22.469Z,87.23
2023-06-09T00:25:56.672Z,86.79
2023-06-09T00:26:31.014Z,86.53
2023-06-09T00:27:08.051Z,87.00
2023-06-09T00:28:16.448Z,86.06
2023-06-09T00:28:49.649Z,85.67
2023-06-09T00:29:23.924Z,85.40
2023-06-09T00:29:57.899Z,86.13
2023-06-09T00:30:38.993Z,86.24
2023-06-09T00:31:15.626Z,86.95
2023-06-09T00:31:50.141Z,87.56
2023-06-09T00:32:23.613Z,87.45
2023-06-09T00:32:57.736Z,87.46
2023-06-09T00:33:31.737Z,87.81
2023-06-09T00:34:05.644Z,87.10
2023-06-09T00:34:39.669Z,86.68
2023-06-09T00:35:14.100Z,86.36
2023-06-09T00:35:50.462Z,85.72
2023-06-09T00:36:26.218Z,85.04
2023-06-09T00:37:01.527Z,86.17
2023-06-09T00:37:37.137Z,86.19
2023-06-09T00:38:11.044Z,87.52
2023-06-09T00:38:44.597Z,86.84
2023-06-09T00:39:17.666Z,86.49
2023-06-09T00:39:59.848Z,87.41
2023-06-09T00:41:08.159Z,87.13
2023-06-09T00:41:43.685Z,87.23
2023-06-09T00:42:53.064Z,86.50
2023-06-09T00:43:28.637Z,86.60
2023-06-09T00:44:04.357Z,86.49
2023-06-09T00:44:37.763Z,86.15
2023-06-09T00:45:13.182Z,86.01
2023-06-09T00:45:48.541Z,86.09
2023-06-09T00:46:22.731Z,85.82
2023-06-09T00:46:56.962Z,85.60
2023-06-09T00:47:29.532Z,85.40
2023-06-09T00:48:05.400Z,85.74
2023-06-09T00:48:41.577Z,85.86
2023-06-09T00:49:16.999Z,86.14
2023-06-09T00:49:51.115Z,85.33
2023-06-09T00:50:26.161Z,85.31
2023-06-09T00:51:01.806Z,85.84
2023-06-09T00:51:37.657Z,85.35
2023-06-09T00:52:11.851Z,85.30
2023-06-09T00:52:46.626Z,84.72
2023-06-09T00:53:21.347Z,85.01
2023-06-09T00:53:57.023Z,84.68
2023-06-09T00:54:33.013Z,84.61
2023-06-09T00:55:09.984Z,85.65
2023-06-09T00:55:45.617Z,85.38
2023-06-09T00:56:21.205Z,85.25
2023-06-09T00:56:56.895Z,84.68
2023-06-09T00:57:35.320Z,84.88
2023-06-09T00:58:11.638Z,85.08
2023-06-09T00:58:46.629Z,85.68
2023-06-09T00:59:25.309Z,86.72
2023-06-09T00:59:58.476Z,86.61
2023-06-09T01:01:23.714Z,87.97
2023-06-09T01:02:20.332Z,87.91
2023-06-09T01:03:16.496Z,87.33
2023-06-09T01:04:25.082Z,86.89
2023-06-09T01:05:02.283Z,86.43
2023-06-09T01:05:45.639Z,86.55
2023-06-09T01:06:40.357Z,86.66
2023-06-09T01:07:47.343Z,87.28
2023-06-09T01:08:34.152Z,87.00
2023-06-09T01:09:35.445Z,86.81
2023-06-09T01:10:49.764Z,87.27
2023-06-09T01:11:43.261Z,87.85
2023-06-09T01:13:07.157Z,88.85
2023-06-09T01:14:03.699Z,88.59
2023-06-09T01:15:48.044Z,87.49
2023-06-09T01:18:12.106Z,88.06
2023-06-09T01:19:39.210Z,89.02
2023-06-09T01:21:00.710Z,88.82
2023-06-09T01:22:40.863Z,88.59
2023-06-09T01:24:04.848Z,88.69
2023-06-09T01:26:47.646Z,88.71
2023-06-09T01:28:52.103Z,89.17
2023-06-09T01:29:44.447Z,89.10
2023-06-09T01:30:56.629Z,89.05
2023-06-09T01:31:44.528Z,89.26
2023-06-09T01:35:12.761Z,88.97
2023-06-09T01:35:58.694Z,89.69
2023-06-09T01:36:34.534Z,89.03
2023-06-09T01:38:05.251Z,89.12
2023-06-09T01:39:44.344Z,88.94
2023-06-09T01:41:10.459Z,88.68
2023-06-09T01:42:45.141Z,88.92
2023-06-09T01:44:16.687Z,88.83
2023-06-09T01:45:08.820Z,89.19
2023-06-09T01:45:59.468Z,89.68
2023-06-09T01:47:14.076Z,90.12
2023-06-09T01:49:07.418Z,90.05
2023-06-09T01:50:51.196Z,90.03
2023-06-09T01:51:29.236Z,90.02
2023-06-09T01:52:18.033Z,89.69
2023-06-09T01:58:12.966Z,89.12
2023-06-09T02:04:02.659Z,87.73
2023-06-09T02:04:57.625Z,87.36
2023-06-09T02:05:54.149Z,87.95
2023-06-09T02:08:38.338Z,88.21
2023-06-09T02:12:58.899Z,88.98
2023-06-09T02:18:45.802Z,89.17
2023-06-09T02:19:53.674Z,89.36
2023-06-09T02:24:29.559Z,91.73
2023-06-09T03:00:52.125Z,89.21
2023-06-09T04:08:57.403Z,89.14
2023-06-09T04:19:10.873Z,89.91
2023-06-09T04:32:10.607Z,88.92
2023-06-09T04:33:18.874Z,87.81
2023-06-09T04:33:59.285Z,88.14
2023-06-09T04:34:39.915Z,87.87
2023-06-09T04:35:20.538Z,88.00
2023-06-09T04:36:48.921Z,88.48
2023-06-09T04:46:12.047Z,87.22
2023-06-09T04:47:16.080Z,86.70
2023-06-09T04:49:34.198Z,87.04
2023-06-09T04:50:37.602Z,85.80
2023-06-09T04:51:30.516Z,86.72
2023-06-09T04:52:26.617Z,86.88
2023-06-09T04:53:57.467Z,85.94
2023-06-09T04:54:36.085Z,86.06
2023-06-09T04:55:48.124Z,86.67
2023-06-09T04:56:26.258Z,86.90
2023-06-09T04:57:03.664Z,87.17
2023-06-09T04:57:54.046Z,85.86
2023-06-09T04:59:02.677Z,86.60
2023-06-09T05:01:05.862Z,85.61
2023-06-09T05:02:33.877Z,84.65
2023-06-09T05:04:57.283Z,85.10
2023-06-09T05:11:29.687Z,87.43
2023-06-09T05:29:59.160Z,83.00
2023-06-09T05:45:11.055Z,83.37
2023-06-09T05:57:28.602Z,79.97
2023-06-09T06:02:13.400Z,78.43
2023-06-09T06:05:08.743Z,77.26
2023-06-09T06:05:46.819Z,75.29
2023-06-09T06:06:22.519Z,71.85
2023-06-09T06:06:55.606Z,74.26
2023-06-09T06:07:33.988Z,74.11
2023-06-09T06:08:10.832Z,70.32
2023-06-09T06:08:47.406Z,73.86
2023-06-09T06:09:19.714Z,71.76
2023-06-09T06:09:52.844Z,74.49
2023-06-09T06:10:27.618Z,72.98
2023-06-09T06:11:08.872Z,69.81
2023-06-09T06:12:19.312Z,69.52
2023-06-09T06:12:52.934Z,70.71
2023-06-09T06:13:30.310Z,70.21
2023-06-09T06:14:41.615Z,68.53
2023-06-09T06:15:22.284Z,69.07
2023-06-09T06:15:54.528Z,68.84
2023-06-09T06:16:29.780Z,68.16
2023-06-09T06:17:38.323Z,67.55
2023-06-09T06:18:11.494Z,69.44
2023-06-09T06:18:47.557Z,68.11
2023-06-09T06:19:23.543Z,68.03
2023-06-09T06:19:59.376Z,67.14
2023-06-09T06:20:31.497Z,67.95
2023-06-09T06:21:03.826Z,67.45
2023-06-09T06:21:46.758Z,67.93
2023-06-09T06:22:25.289Z,69.78
2023-06-09T06:23:00.951Z,65.21
2023-06-09T06:23:33.865Z,68.38
2023-06-09T06:24:06.672Z,68.08
2023-06-09T06:25:14.713Z,66.36
2023-06-09T06:25:47.401Z,66.31
2023-06-09T06:26:19.570Z,65.62
2023-06-09T06:26:51.858Z,66.76
2023-06-09T06:27:57.610Z,67.42
2023-06-09T06:28:30.118Z,67.50
2023-06-09T06:29:35.108Z,67.30
2023-06-09T06:30:10.239Z,66.54
2023-06-09T06:30:43.504Z,66.00
2023-06-09T06:31:18.362Z,66.75
2023-06-09T06:31:50.603Z,68.40
2023-06-09T06:32:24.376Z,64.60
2023-06-09T06:32:56.840Z,63.99
2023-06-09T06:33:31.136Z,63.29
2023-06-09T06:34:06.620Z,63.86
2023-06-09T06:34:40.057Z,63.10
2023-06-09T06:35:12.076Z,63.25
2023-06-09T06:35:44.011Z,66.57
2023-06-09T06:36:16.053Z,65.15
2023-06-09T06:36:48.170Z,62.82
2023-06-09T06:37:20.238Z,62.47
2023-06-09T06:37:52.228Z,63.56
2023-06-09T06:38:24.372Z,62.13
2023-06-09T06:38:56.650Z,61.49
2023-06-09T06:39:29.200Z,62.00
2023-06-09T06:40:34.948Z,63.59
2023-06-09T06:41:07.428Z,63.67
2023-06-09T06:41:40.058Z,62.36
2023-06-09T06:42:12.250Z,62.99
2023-06-09T06:43:17.204Z,63.37
2023-06-09T06:43:51.409Z,62.98
2023-06-09T06:44:23.506Z,63.48
2023-06-09T06:44:58.360Z,65.34
2023-06-09T06:46:03.829Z,64.16
2023-06-09T06:46:36.360Z,63.50
2023-06-09T06:47:08.669Z,60.61
2023-06-09T06:47:42.861Z,62.37
2023-06-09T06:48:17.382Z,60.35
2023-06-09T06:49:22.776Z,59.64
2023-06-09T06:49:55.946Z,60.42
2023-06-09T06:50:28.637Z,59.03
2023-06-09T06:51:01.180Z,58.47
2023-06-09T06:51:33.395Z,59.65
2023-06-09T06:52:11.202Z,60.79
2023-06-09T06:52:43.486Z,60.96
2023-06-09T06:53:52.178Z,62.05
2023-06-09T06:54:24.254Z,62.03
2023-06-09T06:54:56.657Z,60.82
2023-06-09T06:56:01.675Z,61.13
2023-06-09T06:56:33.938Z,61.76
2023-06-09T06:57:42.698Z,60.40
2023-06-09T06:58:14.829Z,59.99
2023-06-09T06:59:20.934Z,59.81
2023-06-09T07:00:04.109Z,60.56
2023-06-09T07:00:40.551Z,60.97
2023-06-09T07:01:22.993Z,60.58
2023-06-09T07:01:55.482Z,61.70
2023-06-09T07:03:04.446Z,59.97
2023-06-09T07:03:41.453Z,60.13
2023-06-09T07:04:52.284Z,61.17
2023-06-09T07:05:59.508Z,62.03
2023-06-09T07:06:35.165Z,61.68
2023-06-09T07:07:12.093Z,61.52
2023-06-09T07:07:54.788Z,58.37
2023-06-09T07:08:27.068Z,59.28
2023-06-09T07:09:33.672Z,60.11
2023-06-09T07:10:41.088Z,56.06
2023-06-09T07:11:14.025Z,55.51
2023-06-09T07:12:22.982Z,55.31
2023-06-09T07:12:56.972Z,57.29
2023-06-09T07:13:35.170Z,56.99
2023-06-09T07:14:59.701Z,56.33
2023-06-09T07:15:33.915Z,56.89
2023-06-09T07:16:39.175Z,56.22
2023-06-09T07:17:11.675Z,53.43
2023-06-09T07:17:44.877Z,54.20
2023-06-09T07:18:56.236Z,54.77
2023-06-09T07:19:29.581Z,54.38
2023-06-09T07:20:03.170Z,55.30
2023-06-09T07:20:35.426Z,54.84
2023-06-09T07:21:07.645Z,55.09
2023-06-09T07:21:43.622Z,54.03
2023-06-09T07:22:19.146Z,52.30
2023-06-09T07:22:53.945Z,54.84
2023-06-09T07:23:28.249Z,54.64
2023-06-09T07:24:00.499Z,54.61
2023-06-09T07:25:10.150Z,54.05
2023-06-09T07:25:42.377Z,53.85
2023-06-09T07:26:14.764Z,52.29
2023-06-09T07:26:49.443Z,53.28
2023-06-09T07:27:57.513Z,53.67
2023-06-09T07:28:32.940Z,53.51
2023-06-09T07:29:06.532Z,54.01
2023-06-09T07:29:38.722Z,55.07
2023-06-09T07:30:11.722Z,55.29
2023-06-09T07:30:44.133Z,53.44
2023-06-09T07:31:17.039Z,55.47
2023-06-09T07:31:49.193Z,53.06
2023-06-09T07:32:21.922Z,53.71
2023-06-09T07:33:32.461Z,54.88
2023-06-09T07:34:05.750Z,54.41
2023-06-09T07:34:39.438Z,55.46
2023-06-09T07:35:14.666Z,55.52
2023-06-09T07:35:50.492Z,56.51
2023-06-09T07:36:22.535Z,55.09
2023-06-09T07:36:55.114Z,53.75
2023-06-09T07:37:27.374Z,53.12
2023-06-09T07:38:32.643Z,54.08
2023-06-09T07:39:08.103Z,52.70
2023-06-09T07:40:19.855Z,53.51
2023-06-09T07:41:29.445Z,51.99
2023-06-09T07:42:04.718Z,53.25
2023-06-09T07:42:36.997Z,53.38
2023-06-09T07:43:09.032Z,52.33
2023-06-09T07:43:41.466Z,51.33
2023-06-09T07:44:13.687Z,52.41
2023-06-09T07:44:45.762Z,53.58
2023-06-09T07:45:18.265Z,53.92
2023-06-09T07:45:50.359Z,53.56
2023-06-09T07:46:22.756Z,53.48
2023-06-09T07:46:54.722Z,53.60
2023-06-09T07:48:01.150Z,55.35
2023-06-09T07:49:07.387Z,55.37
2023-06-09T07:49:39.441Z,55.42
2023-06-09T07:50:12.307Z,54.47
2023-06-09T07:51:00.202Z,55.83
2023-06-09T07:51:34.277Z,55.42
2023-06-09T07:52:23.438Z,56.14
2023-06-09T07:52:56.248Z,52.98
2023-06-09T07:53:28.222Z,51.18
2023-06-09T07:54:00.155Z,52.45
2023-06-09T07:54:32.163Z,50.93
2023-06-09T07:55:05.510Z,52.40
2023-06-09T07:55:37.552Z,50.55
2023-06-09T07:56:10.171Z,51.36
2023-06-09T07:56:42.359Z,49.55
2023-06-09T07:57:14.825Z,49.98
2023-06-09T07:57:46.994Z,49.27
2023-06-09T07:58:19.033Z,47.97
2023-06-09T07:58:51.149Z,48.64
2023-06-09T07:59:23.139Z,47.99
2023-06-09T08:00:30.984Z,50.25
2023-06-09T08:01:03.275Z,50.21
2023-06-09T08:01:35.674Z,48.02
2023-06-09T08:02:07.713Z,49.68
2023-06-09T08:02:42.981Z,47.99
2023-06-09T08:03:15.191Z,46.57
2023-06-09T08:04:20.818Z,47.85
2023-06-09T08:04:56.164Z,46.08
2023-06-09T08:05:28.276Z,46.23
2023-06-09T08:06:00.404Z,46.75
2023-06-09T08:06:35.393Z,47.08
2023-06-09T08:07:10.737Z,47.23
2023-06-09T08:07:42.791Z,46.39
2023-06-09T08:08:15.146Z,46.50
2023-06-09T08:08:53.624Z,46.15
2023-06-09T08:09:28.567Z,45.96
2023-06-09T08:10:00.630Z,45.86
2023-06-09T08:10:36.217Z,46.75
2023-06-09T08:11:08.334Z,46.25
2023-06-09T08:11:40.837Z,46.38
2023-06-09T08:12:13.251Z,46.24
2023-06-09T08:12:47.943Z,46.84
2023-06-09T08:13:56.532Z,45.12
2023-06-09T08:14:36.639Z,43.67
2023-06-09T08:15:09.295Z,46.00
2023-06-09T08:16:15.946Z,47.43
2023-06-09T08:16:48.309Z,46.21
2023-06-09T08:17:23.308Z,48.06
2023-06-09T08:17:59.290Z,45.98
2023-06-09T08:18:31.504Z,46.66
2023-06-09T08:19:03.892Z,46.87
2023-06-09T08:19:36.526Z,44.82
2023-06-09T08:20:09.630Z,45.44
2023-06-09T08:20:42.033Z,46.51
2023-06-09T08:21:14.198Z,47.92
2023-06-09T08:21:46.180Z,46.94
2023-06-09T08:22:18.231Z,46.89
2023-06-09T08:22:50.250Z,48.23
2023-06-09T08:23:22.450Z,48.34
2023-06-09T08:23:54.450Z,47.53
2023-06-09T08:24:26.982Z,48.12
2023-06-09T08:25:00.271Z,51.23
2023-06-09T08:25:32.293Z,50.91
2023-06-09T08:26:04.378Z,50.73
2023-06-09T08:26:36.405Z,51.38
2023-06-09T08:27:08.791Z,51.45
2023-06-09T08:27:41.356Z,51.90
2023-06-09T08:28:13.364Z,53.34
2023-06-09T08:28:49.884Z,54.05
2023-06-09T08:29:22.256Z,55.19
2023-06-09T08:29:54.655Z,52.44
2023-06-09T08:30:26.724Z,52.16
2023-06-09T08:30:58.784Z,53.04
2023-06-09T08:31:33.097Z,53.08
2023-06-09T08:32:05.590Z,53.13
2023-06-09T08:32:37.949Z,53.66
2023-06-09T08:33:10.201Z,53.34
2023-06-09T08:33:42.543Z,53.32
2023-06-09T08:34:14.566Z,51.30
2023-06-09T08:34:46.551Z,52.92
2023-06-09T08:35:18.674Z,54.08
2023-06-09T08:35:50.701Z,52.89
2023-06-09T08:36:24.297Z,53.05
2023-06-09T08:36:58.585Z,53.27
2023-06-09T08:37:31.689Z,54.18
2023-06-09T08:38:03.749Z,53.47
2023-06-09T08:38:36.769Z,53.01
2023-06-09T08:39:09.080Z,54.89
2023-06-09T08:39:41.941Z,54.97
2023-06-09T08:40:14.674Z,55.98
2023-06-09T08:40:50.172Z,54.09
2023-06-09T08:41:26.976Z,55.26
2023-06-09T08:42:05.137Z,55.04
2023-06-09T08:42:38.230Z,55.13
2023-06-09T08:43:11.123Z,55.65
2023-06-09T08:43:43.875Z,55.70
2023-06-09T08:44:19.684Z,55.42
2023-06-09T08:45:08.872Z,54.79
2023-06-09T08:45:45.643Z,55.52
2023-06-09T08:46:53.881Z,55.61
2023-06-09T08:47:29.907Z,55.52
2023-06-09T08:48:04.614Z,54.50
2023-06-09T08:48:51.261Z,55.10
2023-06-09T08:49:23.833Z,55.10
2023-06-09T08:49:59.132Z,55.19
2023-06-09T08:50:32.227Z,53.39
2023-06-09T08:51:04.702Z,52.85
2023-06-09T08:51:38.639Z,51.22
2023-06-09T08:52:10.786Z,53.40
2023-06-09T08:52:43.085Z,52.94
2023-06-09T08:53:15.279Z,52.13
2023-06-09T08:53:47.640Z,52.33
2023-06-09T08:54:19.873Z,51.37
2023-06-09T08:54:53.354Z,51.62
2023-06-09T08:55:25.965Z,53.51
2023-06-09T08:56:00.931Z,52.02
2023-06-09T08:56:34.276Z,50.48
2023-06-09T08:57:08.345Z,51.69
2023-06-09T08:57:42.737Z,52.22
2023-06-09T08:58:16.987Z,51.58
2023-06-09T08:58:50.913Z,52.52
2023-06-09T08:59:23.865Z,52.38
2023-06-09T08:59:57.282Z,52.44
2023-06-09T09:00:30.305Z,52.84
2023-06-09T09:01:03.271Z,52.15
2023-06-09T09:01:37.819Z,50.60
2023-06-09T09:02:11.697Z,52.03
2023-06-09T09:02:47.582Z,51.31
2023-06-09T09:03:20.280Z,49.32
2023-06-09T09:03:52.342Z,48.41
2023-06-09T09:04:24.401Z,50.04
2023-06-09T09:05:01.885Z,52.05
2023-06-09T09:05:34.171Z,51.15
2023-06-09T09:06:06.340Z,51.03
2023-06-09T09:06:38.668Z,51.66
2023-06-09T09:07:12.668Z,52.10
2023-06-09T09:07:48.129Z,52.05
2023-06-09T09:08:21.868Z,51.99
2023-06-09T09:08:53.967Z,51.82
2023-06-09T09:09:26.971Z,52.04
2023-06-09T09:10:00.944Z,52.10
2023-06-09T09:10:33.408Z,52.82
2023-06-09T09:11:05.477Z,54.24
2023-06-09T09:11:38.184Z,51.74
2023-06-09T09:12:18.179Z,51.77
2023-06-09T09:12:52.323Z,50.26
2023-06-09T09:13:30.767Z,51.13
2023-06-09T09:14:15.289Z,48.27
2023-06-09T09:14:48.119Z,48.30
2023-06-09T09:15:20.239Z,48.39
2023-06-09T09:15:53.534Z,49.44
2023-06-09T09:16:36.290Z,48.39
2023-06-09T09:17:13.355Z,46.48
2023-06-09T09:17:49.602Z,46.63
2023-06-09T09:18:22.002Z,46.79
2023-06-09T09:18:55.374Z,48.66
2023-06-09T09:19:29.678Z,48.80
2023-06-09T09:20:08.825Z,47.91
2023-06-09T09:20:43.337Z,47.01
2023-06-09T09:21:23.247Z,47.66
2023-06-09T09:22:07.059Z,48.51
2023-06-09T09:22:48.970Z,45.76
2023-06-09T09:23:30.887Z,48.13
2023-06-09T09:24:07.651Z,48.47
2023-06-09T09:24:46.045Z,49.15
2023-06-09T09:25:28.748Z,48.71
2023-06-09T09:26:01.773Z,49.24
2023-06-09T09:26:34.180Z,48.99
2023-06-09T09:27:20.057Z,49.19
2023-06-09T09:28:06.585Z,48.12
2023-06-09T09:28:41.067Z,47.59
2023-06-09T09:29:13.150Z,47.91
2023-06-09T09:29:45.829Z,47.93
2023-06-09T09:30:17.798Z,46.60
2023-06-09T09:30:50.926Z,47.61
2023-06-09T09:31:32.840Z,45.41
2023-06-09T09:32:05.500Z,46.56
2023-06-09T09:32:38.285Z,45.63
2023-06-09T09:33:14.675Z,46.38
2023-06-09T09:33:49.082Z,48.51
2023-06-09T09:34:21.113Z,48.64
2023-06-09T09:34:54.002Z,50.93
2023-06-09T09:35:26.390Z,50.04
2023-06-09T09:36:00.028Z,50.19
2023-06-09T09:36:34.713Z,48.80
2023-06-09T09:37:15.636Z,49.20
2023-06-09T09:37:47.594Z,47.40
2023-06-09T09:38:32.483Z,48.81
2023-06-09T09:39:07.744Z,48.91
2023-06-09T09:39:52.864Z,47.15
2023-06-09T09:40:24.951Z,46.83
2023-06-09T09:41:00.735Z,47.54
2023-06-09T09:41:33.077Z,46.41
2023-06-09T09:42:09.877Z,47.51
2023-06-09T09:42:46.366Z,48.17
2023-06-09T09:43:19.390Z,47.74
2023-06-09T09:43:57.443Z,47.25
2023-06-09T09:44:44.363Z,48.79
2023-06-09T09:45:26.881Z,46.23
2023-06-09T09:46:06.111Z,47.72
2023-06-09T09:46:38.708Z,48.34
2023-06-09T09:47:15.716Z,48.92
2023-06-09T09:47:47.749Z,47.10
2023-06-09T09:48:23.105Z,48.31
2023-06-09T09:48:58.662Z,46.85
2023-06-09T09:49:30.685Z,46.73
2023-06-09T09:50:03.604Z,47.41
2023-06-09T09:50:39.641Z,46.62
2023-06-09T09:51:12.541Z,49.16
2023-06-09T09:51:44.496Z,46.41
2023-06-09T09:52:16.518Z,46.23
2023-06-09T09:52:52.305Z,47.39
2023-06-09T09:53:26.269Z,47.63
2023-06-09T09:53:59.756Z,49.66
2023-06-09T09:54:31.912Z,49.96
2023-06-09T09:55:10.358Z,51.82
2023-06-09T09:55:44.672Z,52.51
2023-06-09T09:56:22.952Z,51.74
2023-06-09T09:57:00.910Z,53.28
2023-06-09T09:57:33.750Z,50.77
2023-06-09T09:58:08.069Z,50.44
2023-06-09T09:58:43.822Z,50.84
2023-06-09T09:59:16.278Z,49.62
2023-06-09T09:59:49.350Z,49.36
2023-06-09T10:00:22.396Z,49.08
2023-06-09T10:01:04.490Z,49.48
2023-06-09T10:01:38.156Z,48.24
2023-06-09T10:02:20.046Z,47.79
2023-06-09T10:02:55.959Z,49.54
2023-06-09T10:03:29.672Z,49.97
2023-06-09T10:04:02.599Z,49.45
2023-06-09T10:04:37.497Z,47.53
2023-06-09T10:05:12.116Z,45.62
2023-06-09T10:05:49.031Z,46.88
2023-06-09T10:06:28.802Z,46.26
2023-06-09T10:07:03.382Z,45.62
2023-06-09T10:07:39.556Z,45.81
2023-06-09T10:08:16.431Z,45.84
2023-06-09T10:08:49.550Z,44.40
2023-06-09T10:09:25.985Z,45.20
2023-06-09T10:09:58.601Z,46.08
2023-06-09T10:10:32.098Z,47.40
2023-06-09T10:11:04.368Z,47.67
2023-06-09T10:11:38.781Z,46.79
2023-06-09T10:12:12.009Z,47.90
2023-06-09T10:12:45.895Z,45.89
2023-06-09T10:13:18.275Z,46.20
2023-06-09T10:13:50.778Z,46.80
2023-06-09T10:14:23.264Z,45.60
2023-06-09T10:14:57.921Z,45.51
2023-06-09T10:15:30.912Z,45.29
2023-06-09T10:16:03.235Z,45.06
2023-06-09T10:16:36.746Z,46.61
2023-06-09T10:17:09.661Z,45.78
2023-06-09T10:17:44.411Z,46.53
2023-06-09T10:18:16.676Z,47.06
2023-06-09T10:18:49.618Z,46.94
2023-06-09T10:19:24.418Z,46.28
2023-06-09T10:19:57.855Z,46.55
2023-06-09T10:20:31.736Z,46.34
2023-06-09T10:21:04.349Z,47.04
2023-06-09T10:21:37.136Z,48.80
2023-06-09T10:22:10.349Z,49.31
2023-06-09T10:22:43.020Z,48.18
2023-06-09T10:23:16.881Z,46.84
2023-06-09T10:23:49.568Z,46.39
2023-06-09T10:24:23.742Z,48.80
2023-06-09T10:24:56.894Z,48.69
2023-06-09T10:25:29.976Z,46.98
2023-06-09T10:26:03.078Z,47.40
2023-06-09T10:26:38.513Z,45.99
2023-06-09T10:27:11.184Z,46.80
2023-06-09T10:27:43.909Z,45.93
2023-06-09T10:28:19.962Z,46.59
2023-06-09T10:28:51.910Z,47.35
2023-06-09T10:29:23.964Z,47.25
2023-06-09T10:29:56.936Z,47.10
2023-06-09T10:30:29.502Z,49.15
2023-06-09T10:31:04.090Z,47.81
2023-06-09T10:31:41.062Z,47.00
2023-06-09T10:32:21.922Z,47.34
2023-06-09T10:33:07.019Z,47.14
2023-06-09T10:33:43.431Z,45.17
2023-06-09T10:34:17.549Z,47.02
2023-06-09T10:34:53.334Z,46.29
2023-06-09T10:35:30.335Z,46.95
2023-06-09T10:36:10.266Z,46.20
2023-06-09T10:36:42.929Z,47.54
2023-06-09T10:37:31.006Z,47.56
2023-06-09T10:38:24.202Z,47.31
2023-06-09T10:38:56.697Z,47.06
2023-06-09T10:39:52.229Z,47.95
2023-06-09T10:40:31.386Z,47.14
2023-06-09T10:41:09.148Z,48.26
2023-06-09T10:42:00.574Z,46.10
2023-06-09T10:42:50.216Z,47.66
2023-06-09T10:43:40.549Z,47.53
2023-06-09T10:44:42.729Z,48.19
2023-06-09T10:45:16.414Z,46.32
2023-06-09T10:45:58.795Z,46.97
2023-06-09T10:46:44.000Z,47.73
2023-06-09T10:47:43.022Z,46.89
2023-06-09T10:48:35.542Z,45.15
2023-06-09T10:49:07.788Z,45.53
2023-06-09T10:49:40.677Z,46.36
2023-06-09T10:50:44.763Z,45.82
2023-06-09T10:51:28.721Z,44.14
2023-06-09T10:52:00.675Z,44.67
2023-06-09T10:52:42.765Z,46.33
2023-06-09T10:53:17.262Z,43.91
2023-06-09T10:54:13.891Z,46.09
2023-06-09T10:55:29.089Z,46.62
2023-06-09T10:56:42.014Z,46.55
2023-06-09T10:57:36.290Z,47.28
2023-06-09T10:58:40.061Z,47.21
2023-06-09T10:59:46.977Z,45.45
2023-06-09T11:00:19.488Z,45.41
2023-06-09T11:01:08.720Z,45.25
2023-06-09T11:02:03.021Z,45.60
2023-06-09T11:02:35.208Z,47.22
2023-06-09T11:03:10.332Z,45.80
2023-06-09T11:03:42.327Z,45.93
2023-06-09T11:04:45.686Z,45.59
2023-06-09T11:05:22.328Z,46.51
2023-06-09T11:06:01.849Z,46.41
2023-06-09T11:07:14.294Z,44.40
2023-06-09T11:07:49.990Z,45.57
2023-06-09T11:08:21.903Z,46.47
2023-06-09T11:09:15.530Z,48.00
2023-06-09T11:09:52.953Z,48.20
2023-06-09T11:10:26.648Z,46.49
2023-06-09T11:10:58.576Z,47.45
2023-06-09T11:11:50.679Z,46.11
2023-06-09T11:12:29.109Z,46.01
2023-06-09T11:13:01.959Z,45.79
2023-06-09T11:13:41.184Z,47.08
2023-06-09T11:15:02.289Z,44.49
2023-06-09T11:16:04.667Z,45.93
2023-06-09T11:17:14.110Z,46.39
2023-06-09T11:17:48.409Z,45.98
2023-06-09T11:18:20.489Z,46.25
2023-06-09T11:19:24.751Z,45.80
2023-06-09T11:20:10.766Z,46.27
2023-06-09T11:20:43.059Z,47.22
2023-06-09T11:21:18.068Z,47.63
2023-06-09T11:22:04.293Z,48.60
2023-06-09T11:23:00.694Z,48.43
2023-06-09T11:23:33.397Z,46.06
2023-06-09T11:24:06.034Z,45.73
2023-06-09T11:24:48.499Z,46.73
2023-06-09T11:25:20.719Z,47.54
2023-06-09T11:25:54.069Z,45.39
2023-06-09T11:26:27.057Z,45.19
2023-06-09T11:27:19.114Z,44.51
2023-06-09T11:28:11.094Z,44.79
2023-06-09T11:28:43.250Z,44.29
2023-06-09T11:29:20.053Z,43.26
2023-06-09T11:30:09.738Z,43.98
2023-06-09T11:31:03.358Z,43.32
2023-06-09T11:32:01.294Z,41.91
2023-06-09T11:32:50.519Z,43.56
2023-06-09T11:33:43.772Z,43.91
2023-06-09T11:34:57.121Z,44.73
2023-06-09T11:35:29.223Z,45.22
2023-06-09T11:36:01.493Z,46.31
2023-06-09T11:36:34.539Z,46.34
2023-06-09T11:37:07.019Z,46.26
2023-06-09T11:37:39.858Z,47.05
2023-06-09T11:38:13.438Z,44.87
2023-06-09T11:38:47.612Z,44.98
2023-06-09T11:39:20.073Z,44.80
2023-06-09T11:39:53.066Z,43.93
2023-06-09T11:40:26.564Z,45.28
2023-06-09T11:40:58.626Z,44.83
2023-06-09T11:41:31.374Z,45.33
2023-06-09T11:42:04.989Z,44.72
2023-06-09T11:42:37.136Z,46.48
2023-06-09T11:43:10.999Z,48.76
2023-06-09T11:43:50.821Z,50.76
2023-06-09T11:44:26.295Z,51.10
2023-06-09T11:45:02.661Z,50.18
2023-06-09T11:45:36.231Z,51.40
2023-06-09T11:46:13.600Z,51.05
2023-06-09T11:46:45.811Z,51.45
2023-06-09T11:47:31.483Z,50.04
2023-06-09T11:48:07.781Z,50.12
2023-06-09T11:48:57.661Z,50.94
2023-06-09T11:49:29.589Z,52.61
2023-06-09T11:50:03.380Z,50.94
2023-06-09T11:50:46.485Z,49.54
2023-06-09T11:51:18.736Z,51.20
2023-06-09T11:52:01.127Z,51.48
2023-06-09T11:52:34.499Z,50.93
2023-06-09T11:53:11.296Z,52.31
2023-06-09T11:53:49.324Z,52.09
2023-06-09T11:54:21.656Z,52.14
2023-06-09T11:54:53.628Z,52.53
2023-06-09T11:55:26.071Z,50.92
2023-06-09T11:55:58.002Z,51.88
2023-06-09T11:56:30.049Z,51.20
2023-06-09T11:57:02.047Z,50.90
2023-06-09T11:57:35.437Z,49.73
2023-06-09T11:58:10.999Z,49.64
2023-06-09T11:58:43.976Z,49.83
2023-06-09T11:59:27.419Z,49.83
2023-06-09T12:00:15.778Z,48.87
2023-06-09T12:00:48.761Z,48.60
2023-06-09T12:01:24.577Z,47.60
2023-06-09T12:01:56.725Z,48.10
2023-06-09T12:02:29.532Z,48.89
2023-06-09T12:03:02.906Z,48.96
2023-06-09T12:03:38.081Z,48.06
2023-06-09T12:04:10.164Z,49.15
2023-06-09T12:04:43.384Z,47.84
2023-06-09T12:05:15.920Z,47.68
2023-06-09T12:05:49.487Z,47.97
2023-06-09T12:06:21.512Z,48.26
2023-06-09T12:06:53.542Z,48.26
2023-06-09T12:07:25.682Z,49.21
2023-06-09T12:07:58.245Z,48.01
2023-06-09T12:08:30.254Z,49.01
2023-06-09T12:09:24.541Z,49.09
2023-06-09T12:09:58.204Z,50.22
2023-06-09T12:10:31.352Z,48.75
2023-06-09T12:11:03.628Z,49.59
2023-06-09T12:11:35.566Z,49.15
2023-06-09T12:12:08.125Z,49.01
2023-06-09T12:12:44.677Z,49.69
2023-06-09T12:13:17.852Z,50.12
2023-06-09T12:13:49.978Z,48.41
2023-06-09T12:14:22.807Z,47.91
2023-06-09T12:14:54.898Z,48.14
2023-06-09T12:15:28.331Z,47.88
2023-06-09T12:16:02.455Z,47.13
2023-06-09T12:16:34.453Z,48.92
2023-06-09T12:17:07.375Z,48.57
2023-06-09T12:17:40.143Z,48.95
2023-06-09T12:18:13.554Z,48.99
2023-06-09T12:18:46.029Z,48.95
2023-06-09T12:19:21.077Z,47.54
2023-06-09T12:19:53.006Z,48.96
2023-06-09T12:20:28.174Z,47.32
2023-06-09T12:21:01.346Z,47.56
2023-06-09T12:21:34.356Z,47.74
2023-06-09T12:22:06.609Z,48.94
2023-06-09T12:22:41.462Z,47.55
2023-06-09T12:23:16.144Z,49.72
2023-06-09T12:23:55.257Z,46.80
2023-06-09T12:24:28.397Z,46.46
2023-06-09T12:25:28.075Z,47.25
2023-06-09T12:26:07.070Z,46.03
2023-06-09T12:26:43.782Z,46.04
2023-06-09T12:27:15.836Z,44.89
2023-06-09T12:27:47.949Z,44.74
2023-06-09T12:28:31.292Z,43.87